JTD437 ENZV-EGPH
Flight info
| Callsign | JTD437 |
|---|---|
| Flight time | 1h 10m |
| Altitude | 36000 |
| Route | LAPOT DCT KLONN DCT ADN/N0415F240 P600 PTH |
| Aircraft | B738/M-SDE2E3FGHIRWXY/LB1 |
Departure
| Time | 2026-05-06 19:08 |
|---|---|
| Airport | Stavanger Airport, Sola (ENZV) |
Arrival
| Time | 2026-05-06 20:18 |
|---|---|
| Airport | Edinburgh Airport (EGPH) |
| Time | Latitude | Longitude | Altitude | Speed | Heading |
|---|---|---|---|---|---|
| 2026-05-06 18:38 | 58.88085 | 5.62976 | 28 ft | 0 kts | 314° |
| 2026-05-06 18:59 | 58.88079 | 5.62986 | 27 ft | 4 kts | 314° |
| 2026-05-06 18:59 | 58.88061 | 5.63022 | 27 ft | 4 kts | 314° |
| 2026-05-06 18:59 | 58.88044 | 5.63054 | 31 ft | 2 kts | 314° |
| 2026-05-06 19:00 | 58.88027 | 5.63086 | 31 ft | 4 kts | 337° |
| 2026-05-06 19:00 | 58.88008 | 5.63101 | 27 ft | 4 kts | 327° |
| 2026-05-06 19:00 | 58.87988 | 5.63134 | 27 ft | 4 kts | 313° |
| 2026-05-06 19:00 | 58.87980 | 5.63150 | 27 ft | 2 kts | 314° |
| 2026-05-06 19:03 | 58.87984 | 5.63141 | 27 ft | 2 kts | 314° |
| 2026-05-06 19:04 | 58.88005 | 5.63115 | 27 ft | 6 kts | 336° |
| 2026-05-06 19:04 | 58.88044 | 5.63177 | 27 ft | 10 kts | 96° |
| 2026-05-06 19:04 | 58.87998 | 5.63318 | 29 ft | 15 kts | 126° |
| 2026-05-06 19:04 | 58.87900 | 5.63334 | 30 ft | 18 kts | 202° |
| 2026-05-06 19:05 | 58.87762 | 5.63291 | 30 ft | 23 kts | 178° |
| 2026-05-06 19:05 | 58.87585 | 5.63296 | 29 ft | 28 kts | 179° |
| 2026-05-06 19:05 | 58.87373 | 5.63303 | 31 ft | 32 kts | 180° |
| 2026-05-06 19:05 | 58.87140 | 5.63308 | 31 ft | 34 kts | 178° |
| 2026-05-06 19:06 | 58.87015 | 5.63367 | 31 ft | 17 kts | 133° |
| 2026-05-06 19:06 | 58.87013 | 5.63565 | 31 ft | 16 kts | 62° |
| 2026-05-06 19:06 | 58.87061 | 5.63746 | 34 ft | 10 kts | 60° |
| 2026-05-06 19:06 | 58.87116 | 5.63797 | 34 ft | 0 kts | 358° |
| 2026-05-06 19:07 | 58.87372 | 5.63789 | 33 ft | 77 kts | 359° |
| 2026-05-06 19:07 | 58.88160 | 5.63763 | 32 ft | 147 kts | 358° |
| 2026-05-06 19:08 | 58.89319 | 5.63722 | 423 ft | 180 kts | 357° |
| 2026-05-06 19:08 | 58.90618 | 5.63684 | 1289 ft | 192 kts | 358° |
| 2026-05-06 19:08 | 58.92012 | 5.63645 | 1962 ft | 209 kts | 358° |
| 2026-05-06 19:08 | 58.93492 | 5.63599 | 2601 ft | 215 kts | 359° |
| 2026-05-06 19:09 | 58.95008 | 5.63549 | 3108 ft | 221 kts | 359° |
| 2026-05-06 19:09 | 58.96556 | 5.63492 | 3683 ft | 223 kts | 358° |
| 2026-05-06 19:09 | 58.98127 | 5.63431 | 4170 ft | 232 kts | 358° |
| 2026-05-06 19:09 | 58.99802 | 5.63357 | 4540 ft | 246 kts | 356° |
| 2026-05-06 19:10 | 59.01430 | 5.62333 | 5195 ft | 251 kts | 322° |
| 2026-05-06 19:10 | 59.02497 | 5.59669 | 6044 ft | 254 kts | 295° |
| 2026-05-06 19:10 | 59.02853 | 5.56290 | 6792 ft | 261 kts | 270° |
| 2026-05-06 19:10 | 59.02440 | 5.52883 | 7511 ft | 267 kts | 246° |
| 2026-05-06 19:11 | 59.01471 | 5.49773 | 8294 ft | 270 kts | 239° |
| 2026-05-06 19:11 | 59.00403 | 5.46758 | 9059 ft | 271 kts | 238° |
| 2026-05-06 19:11 | 58.99313 | 5.43746 | 9835 ft | 273 kts | 238° |
| 2026-05-06 19:11 | 58.98215 | 5.40714 | 10449 ft | 279 kts | 238° |
| 2026-05-06 19:12 | 58.97101 | 5.37507 | 10625 ft | 299 kts | 243° |
| 2026-05-06 19:12 | 58.96172 | 5.33777 | 10811 ft | 317 kts | 249° |
| 2026-05-06 19:12 | 58.95309 | 5.29702 | 10985 ft | 336 kts | 250° |
| 2026-05-06 19:12 | 58.94425 | 5.25387 | 11278 ft | 349 kts | 250° |
| 2026-05-06 19:13 | 58.93516 | 5.20978 | 11897 ft | 353 kts | 250° |
| 2026-05-06 19:13 | 58.92595 | 5.16577 | 12624 ft | 353 kts | 250° |
| 2026-05-06 19:13 | 58.91667 | 5.12210 | 13235 ft | 357 kts | 249° |
| 2026-05-06 19:13 | 58.90710 | 5.07751 | 13893 ft | 359 kts | 249° |
| 2026-05-06 19:14 | 58.89743 | 5.03284 | 14525 ft | 360 kts | 249° |
| 2026-05-06 19:14 | 58.88767 | 4.98802 | 15137 ft | 362 kts | 249° |
| 2026-05-06 19:14 | 58.87784 | 4.94313 | 15721 ft | 364 kts | 249° |
| 2026-05-06 19:14 | 58.86791 | 4.89787 | 16284 ft | 366 kts | 249° |
| 2026-05-06 19:15 | 58.85792 | 4.85247 | 16883 ft | 368 kts | 249° |
| 2026-05-06 19:15 | 58.84786 | 4.80687 | 17448 ft | 370 kts | 249° |
| 2026-05-06 19:15 | 58.83772 | 4.76100 | 18019 ft | 373 kts | 249° |
| 2026-05-06 19:15 | 58.82748 | 4.71483 | 18534 ft | 375 kts | 249° |
| 2026-05-06 19:16 | 58.81731 | 4.66901 | 18999 ft | 377 kts | 249° |
| 2026-05-06 19:16 | 58.80692 | 4.62235 | 19461 ft | 379 kts | 249° |
| 2026-05-06 19:16 | 58.79643 | 4.57535 | 19912 ft | 382 kts | 249° |
| 2026-05-06 19:16 | 58.78588 | 4.52814 | 20375 ft | 384 kts | 249° |
| 2026-05-06 19:17 | 58.77523 | 4.48065 | 20823 ft | 386 kts | 249° |
| 2026-05-06 19:17 | 58.76451 | 4.43289 | 21256 ft | 389 kts | 249° |
| 2026-05-06 19:17 | 58.75373 | 4.38501 | 21722 ft | 390 kts | 249° |
| 2026-05-06 19:17 | 58.74289 | 4.33699 | 22166 ft | 392 kts | 249° |
| 2026-05-06 19:18 | 58.73210 | 4.28926 | 22583 ft | 394 kts | 249° |
| 2026-05-06 19:18 | 58.72106 | 4.24056 | 22972 ft | 397 kts | 249° |
| 2026-05-06 19:18 | 58.70997 | 4.19173 | 23350 ft | 399 kts | 249° |
| 2026-05-06 19:18 | 58.69877 | 4.14255 | 23747 ft | 401 kts | 249° |
| 2026-05-06 19:19 | 58.68753 | 4.09330 | 24081 ft | 403 kts | 249° |
| 2026-05-06 19:19 | 58.67621 | 4.04384 | 24424 ft | 404 kts | 248° |
| 2026-05-06 19:19 | 58.66485 | 3.99429 | 24756 ft | 406 kts | 248° |
| 2026-05-06 19:19 | 58.65352 | 3.94501 | 25065 ft | 407 kts | 248° |
| 2026-05-06 19:20 | 58.64203 | 3.89515 | 25386 ft | 409 kts | 248° |
| 2026-05-06 19:20 | 58.63050 | 3.84519 | 25681 ft | 410 kts | 248° |
| 2026-05-06 19:20 | 58.61887 | 3.79496 | 25979 ft | 412 kts | 248° |
| 2026-05-06 19:20 | 58.60719 | 3.74459 | 26299 ft | 413 kts | 249° |
| 2026-05-06 19:21 | 58.59542 | 3.69399 | 26572 ft | 415 kts | 249° |
| 2026-05-06 19:21 | 58.58359 | 3.64324 | 26842 ft | 417 kts | 248° |
| 2026-05-06 19:21 | 58.57187 | 3.59307 | 27116 ft | 418 kts | 248° |
| 2026-05-06 19:21 | 58.55995 | 3.54217 | 27443 ft | 418 kts | 248° |
| 2026-05-06 19:22 | 58.54802 | 3.49137 | 27873 ft | 416 kts | 248° |
| 2026-05-06 19:22 | 58.53619 | 3.44110 | 28316 ft | 414 kts | 248° |
| 2026-05-06 19:22 | 58.52433 | 3.39085 | 28705 ft | 413 kts | 248° |
| 2026-05-06 19:22 | 58.51250 | 3.34077 | 29059 ft | 412 kts | 248° |
| 2026-05-06 19:23 | 58.50064 | 3.29071 | 29437 ft | 411 kts | 248° |
| 2026-05-06 19:23 | 58.48899 | 3.24167 | 29831 ft | 409 kts | 248° |
| 2026-05-06 19:23 | 58.47718 | 3.19206 | 30204 ft | 408 kts | 248° |
| 2026-05-06 19:23 | 58.46540 | 3.14265 | 30491 ft | 408 kts | 248° |
| 2026-05-06 19:24 | 58.45361 | 3.09331 | 30734 ft | 408 kts | 249° |
| 2026-05-06 19:24 | 58.44177 | 3.04386 | 30940 ft | 409 kts | 249° |
| 2026-05-06 19:24 | 58.42989 | 2.99437 | 31091 ft | 411 kts | 248° |
| 2026-05-06 19:24 | 58.41793 | 2.94463 | 31282 ft | 412 kts | 248° |
| 2026-05-06 19:25 | 58.40609 | 2.89555 | 31618 ft | 410 kts | 248° |
| 2026-05-06 19:25 | 58.39418 | 2.84632 | 31959 ft | 408 kts | 248° |
| 2026-05-06 19:25 | 58.38338 | 2.79625 | 32221 ft | 406 kts | 252° |
| 2026-05-06 19:25 | 58.37383 | 2.74562 | 32450 ft | 406 kts | 253° |
| 2026-05-06 19:26 | 58.36443 | 2.69492 | 32700 ft | 405 kts | 253° |
| 2026-05-06 19:26 | 58.35508 | 2.64434 | 32989 ft | 404 kts | 253° |
| 2026-05-06 19:26 | 58.34584 | 2.59459 | 33228 ft | 404 kts | 253° |
| 2026-05-06 19:26 | 58.33641 | 2.54409 | 33428 ft | 404 kts | 253° |
| 2026-05-06 19:27 | 58.32596 | 2.49424 | 33621 ft | 407 kts | 246° |
| 2026-05-06 19:27 | 58.31266 | 2.44661 | 33865 ft | 407 kts | 245° |
| 2026-05-06 19:27 | 58.29898 | 2.39935 | 34038 ft | 408 kts | 244° |
| 2026-05-06 19:28 | 58.27141 | 2.30454 | 34064 ft | 409 kts | 244° |
| 2026-05-06 19:28 | 58.24427 | 2.21064 | 34066 ft | 406 kts | 245° |
| 2026-05-06 19:29 | 58.21725 | 2.11675 | 34074 ft | 403 kts | 245° |
| 2026-05-06 19:29 | 58.19493 | 2.03924 | 34073 ft | 402 kts | 245° |
| 2026-05-06 19:30 | 58.16820 | 1.94667 | 34075 ft | 403 kts | 245° |
| 2026-05-06 19:30 | 58.14099 | 1.85277 | 34081 ft | 410 kts | 245° |
| 2026-05-06 19:31 | 58.11327 | 1.75754 | 34081 ft | 415 kts | 244° |
| 2026-05-06 19:31 | 58.09924 | 1.70953 | 34199 ft | 416 kts | 244° |
| 2026-05-06 19:31 | 58.07125 | 1.61408 | 34580 ft | 414 kts | 244° |
| 2026-05-06 19:32 | 58.05725 | 1.56646 | 34750 ft | 414 kts | 244° |
| 2026-05-06 19:32 | 58.04337 | 1.51935 | 34866 ft | 415 kts | 244° |
| 2026-05-06 19:32 | 58.02927 | 1.47157 | 34988 ft | 416 kts | 244° |
| 2026-05-06 19:32 | 58.01513 | 1.42375 | 35149 ft | 416 kts | 244° |
| 2026-05-06 19:33 | 58.00099 | 1.37605 | 35311 ft | 416 kts | 244° |
| 2026-05-06 19:33 | 57.98682 | 1.32833 | 35448 ft | 416 kts | 244° |
| 2026-05-06 19:33 | 57.97265 | 1.28071 | 35565 ft | 417 kts | 244° |
| 2026-05-06 19:33 | 57.95858 | 1.23354 | 35697 ft | 417 kts | 244° |
| 2026-05-06 19:34 | 57.94430 | 1.18575 | 35804 ft | 419 kts | 244° |
| 2026-05-06 19:34 | 57.92996 | 1.13784 | 35839 ft | 421 kts | 244° |
| 2026-05-06 19:34 | 57.91570 | 1.09029 | 35946 ft | 420 kts | 244° |
| 2026-05-06 19:34 | 57.90130 | 1.04242 | 36061 ft | 420 kts | 243° |
| 2026-05-06 19:35 | 57.87227 | 0.94614 | 36075 ft | 424 kts | 243° |
| 2026-05-06 19:35 | 57.84307 | 0.84973 | 36075 ft | 424 kts | 243° |
| 2026-05-06 19:36 | 57.81390 | 0.75382 | 36071 ft | 425 kts | 243° |
| 2026-05-06 19:36 | 57.78451 | 0.65755 | 36071 ft | 425 kts | 243° |
| 2026-05-06 19:37 | 57.75517 | 0.56186 | 36058 ft | 425 kts | 243° |
| 2026-05-06 19:37 | 57.72560 | 0.46582 | 36073 ft | 425 kts | 243° |
| 2026-05-06 19:38 | 57.69593 | 0.36982 | 36069 ft | 425 kts | 243° |
| 2026-05-06 19:38 | 57.66642 | 0.27473 | 36068 ft | 425 kts | 243° |
| 2026-05-06 19:39 | 57.63667 | 0.17924 | 36060 ft | 424 kts | 243° |
| 2026-05-06 19:39 | 57.60684 | 0.08393 | 36069 ft | 425 kts | 243° |
| 2026-05-06 19:40 | 57.57690 | -0.01140 | 36061 ft | 426 kts | 243° |
| 2026-05-06 19:40 | 57.54704 | -0.10607 | 36058 ft | 426 kts | 243° |
| 2026-05-06 19:41 | 57.51686 | -0.20138 | 36061 ft | 428 kts | 243° |
| 2026-05-06 19:41 | 57.48647 | -0.29695 | 36067 ft | 429 kts | 243° |
| 2026-05-06 19:42 | 57.45616 | -0.39191 | 36068 ft | 430 kts | 243° |
| 2026-05-06 19:42 | 57.42551 | -0.48754 | 36058 ft | 431 kts | 243° |
| 2026-05-06 19:43 | 57.39469 | -0.58328 | 36065 ft | 432 kts | 243° |
| 2026-05-06 19:43 | 57.36378 | -0.67891 | 36047 ft | 432 kts | 243° |
| 2026-05-06 19:44 | 57.33298 | -0.77386 | 36055 ft | 432 kts | 243° |
| 2026-05-06 19:44 | 57.30192 | -0.86920 | 36065 ft | 432 kts | 243° |
| 2026-05-06 19:45 | 57.27092 | -0.96401 | 36058 ft | 433 kts | 243° |
| 2026-05-06 19:45 | 57.23962 | -1.05933 | 36056 ft | 433 kts | 243° |
| 2026-05-06 19:46 | 57.20825 | -1.15449 | 36057 ft | 433 kts | 243° |
| 2026-05-06 19:46 | 57.17699 | -1.24895 | 36051 ft | 433 kts | 243° |
| 2026-05-06 19:47 | 57.14549 | -1.34370 | 36055 ft | 433 kts | 243° |
| 2026-05-06 19:47 | 57.12971 | -1.39105 | 35932 ft | 435 kts | 243° |
| 2026-05-06 19:47 | 57.11391 | -1.43845 | 35383 ft | 441 kts | 244° |
| 2026-05-06 19:48 | 57.09787 | -1.48640 | 34732 ft | 440 kts | 244° |
| 2026-05-06 19:48 | 57.08172 | -1.53455 | 34131 ft | 440 kts | 245° |
| 2026-05-06 19:48 | 57.06562 | -1.58247 | 33409 ft | 441 kts | 245° |
| 2026-05-06 19:48 | 57.04945 | -1.63052 | 32699 ft | 442 kts | 244° |
| 2026-05-06 19:49 | 57.03326 | -1.67851 | 32006 ft | 442 kts | 244° |
| 2026-05-06 19:49 | 57.01703 | -1.72654 | 31296 ft | 442 kts | 243° |
| 2026-05-06 19:49 | 57.00077 | -1.77456 | 30570 ft | 443 kts | 243° |
| 2026-05-06 19:49 | 56.98467 | -1.82203 | 29823 ft | 443 kts | 243° |
| 2026-05-06 19:50 | 56.96842 | -1.86975 | 29314 ft | 437 kts | 243° |
| 2026-05-06 19:50 | 56.95239 | -1.91673 | 28753 ft | 432 kts | 243° |
| 2026-05-06 19:50 | 56.93654 | -1.96309 | 28221 ft | 427 kts | 243° |
| 2026-05-06 19:50 | 56.92081 | -2.00903 | 27704 ft | 422 kts | 242° |
| 2026-05-06 19:51 | 56.90547 | -2.05379 | 27194 ft | 417 kts | 242° |
| 2026-05-06 19:51 | 56.89013 | -2.09845 | 26689 ft | 411 kts | 242° |
| 2026-05-06 19:51 | 56.87494 | -2.14265 | 26161 ft | 408 kts | 242° |
| 2026-05-06 19:51 | 56.85990 | -2.18631 | 25676 ft | 405 kts | 242° |
| 2026-05-06 19:52 | 56.84492 | -2.22973 | 25163 ft | 402 kts | 242° |
| 2026-05-06 19:52 | 56.83004 | -2.27281 | 24671 ft | 399 kts | 242° |
| 2026-05-06 19:52 | 56.81528 | -2.31542 | 24157 ft | 396 kts | 241° |
| 2026-05-06 19:52 | 56.80056 | -2.35786 | 23667 ft | 393 kts | 241° |
| 2026-05-06 19:53 | 56.78612 | -2.39940 | 23114 ft | 391 kts | 241° |
| 2026-05-06 19:53 | 56.77159 | -2.44114 | 22630 ft | 386 kts | 240° |
| 2026-05-06 19:53 | 56.75722 | -2.48234 | 22136 ft | 383 kts | 240° |
| 2026-05-06 19:53 | 56.74293 | -2.52322 | 21659 ft | 379 kts | 240° |
| 2026-05-06 19:54 | 56.72894 | -2.56319 | 21174 ft | 376 kts | 240° |
| 2026-05-06 19:54 | 56.71488 | -2.60331 | 20706 ft | 373 kts | 240° |
| 2026-05-06 19:54 | 56.70090 | -2.64313 | 20216 ft | 371 kts | 239° |
| 2026-05-06 19:54 | 56.68701 | -2.68262 | 19744 ft | 369 kts | 239° |
| 2026-05-06 19:55 | 56.67318 | -2.72189 | 19281 ft | 367 kts | 239° |
| 2026-05-06 19:55 | 56.65941 | -2.76092 | 18819 ft | 365 kts | 239° |
| 2026-05-06 19:55 | 56.64589 | -2.79918 | 18364 ft | 364 kts | 239° |
| 2026-05-06 19:55 | 56.63218 | -2.83792 | 17871 ft | 362 kts | 238° |
| 2026-05-06 19:56 | 56.61858 | -2.87627 | 17396 ft | 359 kts | 238° |
| 2026-05-06 19:56 | 56.60507 | -2.91430 | 16933 ft | 357 kts | 238° |
| 2026-05-06 19:56 | 56.59163 | -2.95210 | 16476 ft | 354 kts | 238° |
| 2026-05-06 19:56 | 56.57829 | -2.98953 | 16036 ft | 352 kts | 238° |
| 2026-05-06 19:57 | 56.56503 | -3.02672 | 15572 ft | 350 kts | 238° |
| 2026-05-06 19:57 | 56.55176 | -3.06385 | 15126 ft | 348 kts | 238° |
| 2026-05-06 19:57 | 56.53877 | -3.10017 | 14678 ft | 347 kts | 238° |
| 2026-05-06 19:57 | 56.52565 | -3.13678 | 14231 ft | 346 kts | 238° |
| 2026-05-06 19:58 | 56.51256 | -3.17326 | 13790 ft | 344 kts | 237° |
| 2026-05-06 19:58 | 56.49953 | -3.20951 | 13293 ft | 343 kts | 237° |
| 2026-05-06 19:58 | 56.48655 | -3.24559 | 12861 ft | 340 kts | 237° |
| 2026-05-06 19:58 | 56.47364 | -3.28142 | 12420 ft | 339 kts | 237° |
| 2026-05-06 19:59 | 56.46076 | -3.31709 | 11988 ft | 337 kts | 237° |
| 2026-05-06 19:59 | 56.44812 | -3.35195 | 11546 ft | 335 kts | 236° |
| 2026-05-06 19:59 | 56.43250 | -3.38324 | 11110 ft | 335 kts | 218° |
| 2026-05-06 19:59 | 56.41361 | -3.40729 | 10900 ft | 327 kts | 216° |
| 2026-05-06 20:00 | 56.39522 | -3.43050 | 10735 ft | 318 kts | 216° |
| 2026-05-06 20:00 | 56.37763 | -3.45289 | 10610 ft | 307 kts | 217° |
| 2026-05-06 20:00 | 56.36054 | -3.47476 | 10477 ft | 295 kts | 217° |
| 2026-05-06 20:00 | 56.34404 | -3.49596 | 10344 ft | 285 kts | 217° |
| 2026-05-06 20:01 | 56.32831 | -3.51622 | 10335 ft | 268 kts | 217° |
| 2026-05-06 20:01 | 56.31332 | -3.53552 | 10149 ft | 262 kts | 217° |
| 2026-05-06 20:01 | 56.29887 | -3.55414 | 10048 ft | 255 kts | 217° |
| 2026-05-06 20:01 | 56.28451 | -3.57265 | 9831 ft | 250 kts | 217° |
| 2026-05-06 20:02 | 56.27081 | -3.59027 | 9776 ft | 235 kts | 217° |
| 2026-05-06 20:02 | 56.25784 | -3.60695 | 9672 ft | 221 kts | 217° |
| 2026-05-06 20:02 | 56.24567 | -3.62261 | 9516 ft | 209 kts | 217° |
| 2026-05-06 20:02 | 56.23367 | -3.63802 | 8950 ft | 217 kts | 217° |
| 2026-05-06 20:03 | 56.22154 | -3.65356 | 8639 ft | 213 kts | 217° |
| 2026-05-06 20:03 | 56.20984 | -3.66856 | 8401 ft | 206 kts | 217° |
| 2026-05-06 20:03 | 56.19832 | -3.68340 | 8181 ft | 197 kts | 219° |
| 2026-05-06 20:03 | 56.18961 | -3.70098 | 8001 ft | 186 kts | 236° |
| 2026-05-06 20:04 | 56.18196 | -3.71989 | 7783 ft | 188 kts | 233° |
| 2026-05-06 20:04 | 56.17411 | -3.73861 | 7616 ft | 187 kts | 233° |
| 2026-05-06 20:04 | 56.16624 | -3.75727 | 7407 ft | 187 kts | 233° |
| 2026-05-06 20:04 | 56.15838 | -3.77584 | 7249 ft | 185 kts | 233° |
| 2026-05-06 20:05 | 56.15071 | -3.79394 | 7157 ft | 180 kts | 233° |
| 2026-05-06 20:05 | 56.14323 | -3.81156 | 7069 ft | 177 kts | 233° |
| 2026-05-06 20:05 | 56.13494 | -3.82814 | 6987 ft | 182 kts | 211° |
| 2026-05-06 20:05 | 56.12272 | -3.83210 | 6920 ft | 187 kts | 175° |
| 2026-05-06 20:06 | 56.10962 | -3.82927 | 6796 ft | 190 kts | 175° |
| 2026-05-06 20:06 | 56.09655 | -3.82634 | 6681 ft | 187 kts | 175° |
| 2026-05-06 20:06 | 56.08374 | -3.82347 | 6572 ft | 184 kts | 175° |
| 2026-05-06 20:06 | 56.07109 | -3.82067 | 6452 ft | 181 kts | 175° |
| 2026-05-06 20:07 | 56.05872 | -3.81795 | 6315 ft | 178 kts | 175° |
| 2026-05-06 20:07 | 56.04653 | -3.81530 | 6195 ft | 175 kts | 175° |
| 2026-05-06 20:07 | 56.03439 | -3.81268 | 6100 ft | 175 kts | 175° |
| 2026-05-06 20:07 | 56.02227 | -3.81008 | 5995 ft | 175 kts | 175° |
| 2026-05-06 20:08 | 56.01013 | -3.80749 | 5888 ft | 175 kts | 175° |
| 2026-05-06 20:08 | 55.99823 | -3.80495 | 5828 ft | 170 kts | 175° |
| 2026-05-06 20:08 | 55.98666 | -3.80249 | 5678 ft | 164 kts | 175° |
| 2026-05-06 20:08 | 55.97552 | -3.80013 | 5583 ft | 159 kts | 175° |
| 2026-05-06 20:09 | 55.96462 | -3.79782 | 5486 ft | 157 kts | 175° |
| 2026-05-06 20:09 | 55.95371 | -3.79552 | 5407 ft | 158 kts | 175° |
| 2026-05-06 20:09 | 55.94274 | -3.79322 | 5268 ft | 159 kts | 175° |
| 2026-05-06 20:09 | 55.93205 | -3.79096 | 5074 ft | 150 kts | 175° |
| 2026-05-06 20:10 | 55.92174 | -3.78879 | 4893 ft | 159 kts | 176° |
| 2026-05-06 20:10 | 55.90976 | -3.78632 | 4975 ft | 181 kts | 175° |
| 2026-05-06 20:10 | 55.89737 | -3.78371 | 4822 ft | 176 kts | 175° |
| 2026-05-06 20:10 | 55.88561 | -3.78122 | 4638 ft | 163 kts | 175° |
| 2026-05-06 20:11 | 55.87485 | -3.77895 | 4420 ft | 152 kts | 175° |
| 2026-05-06 20:11 | 55.86465 | -3.77680 | 4183 ft | 146 kts | 175° |
| 2026-05-06 20:11 | 55.85393 | -3.77458 | 4098 ft | 157 kts | 175° |
| 2026-05-06 20:11 | 55.84368 | -3.76962 | 3985 ft | 145 kts | 150° |
| 2026-05-06 20:12 | 55.83612 | -3.75796 | 3969 ft | 146 kts | 131° |
| 2026-05-06 20:12 | 55.83184 | -3.74163 | 3983 ft | 149 kts | 105° |
| 2026-05-06 20:12 | 55.83250 | -3.72351 | 3970 ft | 154 kts | 66° |
| 2026-05-06 20:12 | 55.83821 | -3.70706 | 4000 ft | 159 kts | 63° |
| 2026-05-06 20:13 | 55.84361 | -3.69006 | 3986 ft | 156 kts | 63° |
| 2026-05-06 20:13 | 55.84900 | -3.67342 | 3905 ft | 156 kts | 63° |
| 2026-05-06 20:13 | 55.85444 | -3.65698 | 3695 ft | 151 kts | 62° |
| 2026-05-06 20:13 | 55.85974 | -3.64107 | 3502 ft | 148 kts | 62° |
| 2026-05-06 20:14 | 55.86493 | -3.62554 | 3314 ft | 148 kts | 63° |
| 2026-05-06 20:14 | 55.87024 | -3.60967 | 3113 ft | 149 kts | 62° |
| 2026-05-06 20:14 | 55.87555 | -3.59387 | 2902 ft | 148 kts | 63° |
| 2026-05-06 20:14 | 55.88080 | -3.57819 | 2697 ft | 147 kts | 63° |
| 2026-05-06 20:15 | 55.88602 | -3.56264 | 2502 ft | 146 kts | 63° |
| 2026-05-06 20:15 | 55.89119 | -3.54724 | 2295 ft | 144 kts | 63° |
| 2026-05-06 20:15 | 55.89631 | -3.53199 | 2098 ft | 143 kts | 63° |
| 2026-05-06 20:15 | 55.90142 | -3.51678 | 1904 ft | 142 kts | 63° |
| 2026-05-06 20:16 | 55.90643 | -3.50188 | 1716 ft | 141 kts | 63° |
| 2026-05-06 20:16 | 55.91145 | -3.48694 | 1510 ft | 138 kts | 63° |
| 2026-05-06 20:16 | 55.91633 | -3.47243 | 1315 ft | 134 kts | 63° |
| 2026-05-06 20:16 | 55.92115 | -3.45829 | 1053 ft | 133 kts | 61° |
| 2026-05-06 20:17 | 55.92594 | -3.44444 | 816 ft | 130 kts | 63° |
| 2026-05-06 20:17 | 55.93054 | -3.43049 | 649 ft | 132 kts | 64° |
| 2026-05-06 20:17 | 55.93363 | -3.42108 | 521 ft | 133 kts | 63° |
| 2026-05-06 20:17 | 55.93840 | -3.40700 | 373 ft | 132 kts | 64° |
| 2026-05-06 20:18 | 55.94326 | -3.39310 | 213 ft | 133 kts | 64° |
| 2026-05-06 20:18 | 55.94767 | -3.37925 | 117 ft | 114 kts | 59° |
| 2026-05-06 20:18 | 55.95010 | -3.37215 | 110 ft | 52 kts | 58° |
| 2026-05-06 20:18 | 55.95149 | -3.36810 | 111 ft | 25 kts | 58° |
| 2026-05-06 20:19 | 55.95234 | -3.36559 | 110 ft | 16 kts | 59° |
| 2026-05-06 20:19 | 55.95230 | -3.36393 | 110 ft | 15 kts | 145° |
| 2026-05-06 20:19 | 55.95210 | -3.36370 | 110 ft | 0 kts | 149° |
| 2026-05-06 20:21 | 55.95203 | -3.36362 | 110 ft | 2 kts | 149° |
| 2026-05-06 20:21 | 55.95180 | -3.36338 | 110 ft | 5 kts | 149° |
| 2026-05-06 20:21 | 55.95148 | -3.36273 | 111 ft | 10 kts | 115° |
| 2026-05-06 20:21 | 55.95119 | -3.36131 | 111 ft | 15 kts | 108° |
| 2026-05-06 20:22 | 55.95078 | -3.35941 | 111 ft | 18 kts | 117° |
| 2026-05-06 20:22 | 55.95026 | -3.35835 | 111 ft | 11 kts | 179° |
| 2026-05-06 20:22 | 55.94989 | -3.35940 | 111 ft | 9 kts | 250° |
| 2026-05-06 20:22 | 55.94970 | -3.36034 | 111 ft | 3 kts | 251° |